sensor_id;sensor_type;location;lat;lon;timestamp;temperature;humidity
75786;DHT22;64402;44.708;37.644;2023-08-07T00:01:09;24.16;73.96
75786;DHT22;64402;44.708;37.644;2023-08-07T00:03:35;24.25;73.83
75786;DHT22;64402;44.708;37.644;2023-08-07T00:06:01;24.24;73.55
75786;DHT22;64402;44.708;37.644;2023-08-07T00:08:28;24.28;73.46
75786;DHT22;64402;44.708;37.644;2023-08-07T00:11:04;24.29;73.85
75786;DHT22;64402;44.708;37.644;2023-08-07T00:13:31;24.27;73.77
75786;DHT22;64402;44.708;37.644;2023-08-07T00:15:57;24.19;74.85
75786;DHT22;64402;44.708;37.644;2023-08-07T00:18:23;24.10;74.87
75786;DHT22;64402;44.708;37.644;2023-08-07T00:20:50;24.09;74.88
75786;DHT22;64402;44.708;37.644;2023-08-07T00:23:16;24.06;75.03
75786;DHT22;64402;44.708;37.644;2023-08-07T00:25:42;24.09;75.31
75786;DHT22;64402;44.708;37.644;2023-08-07T00:28:08;24.09;75.34
75786;DHT22;64402;44.708;37.644;2023-08-07T00:30:35;24.03;76.39
75786;DHT22;64402;44.708;37.644;2023-08-07T00:33:01;24.01;76.37
75786;DHT22;64402;44.708;37.644;2023-08-07T00:35:28;23.95;76.71
75786;DHT22;64402;44.708;37.644;2023-08-07T00:37:55;23.89;76.66
75786;DHT22;64402;44.708;37.644;2023-08-07T00:40:21;23.88;76.82
75786;DHT22;64402;44.708;37.644;2023-08-07T00:42:47;23.85;76.79
75786;DHT22;64402;44.708;37.644;2023-08-07T00:45:14;23.84;77.18
75786;DHT22;64402;44.708;37.644;2023-08-07T00:47:40;23.80;76.91
75786;DHT22;64402;44.708;37.644;2023-08-07T00:50:07;23.80;77.16
75786;DHT22;64402;44.708;37.644;2023-08-07T00:52:34;23.75;77.15
75786;DHT22;64402;44.708;37.644;2023-08-07T00:55:00;23.71;77.54
75786;DHT22;64402;44.708;37.644;2023-08-07T00:57:27;23.70;77.69
75786;DHT22;64402;44.708;37.644;2023-08-07T00:59:54;23.69;78.06
75786;DHT22;64402;44.708;37.644;2023-08-07T01:02:20;23.64;78.26
75786;DHT22;64402;44.708;37.644;2023-08-07T01:04:46;23.60;77.66
75786;DHT22;64402;44.708;37.644;2023-08-07T01:07:13;23.64;77.66
75786;DHT22;64402;44.708;37.644;2023-08-07T01:09:39;23.61;78.01
75786;DHT22;64402;44.708;37.644;2023-08-07T01:14:52;23.59;78.21
75786;DHT22;64402;44.708;37.644;2023-08-07T01:17:22;23.55;78.78
75786;DHT22;64402;44.708;37.644;2023-08-07T01:19:51;23.54;78.99
75786;DHT22;64402;44.708;37.644;2023-08-07T01:22:19;23.41;78.17
75786;DHT22;64402;44.708;37.644;2023-08-07T01:24:48;23.44;77.84
75786;DHT22;64402;44.708;37.644;2023-08-07T01:35:27;23.73;77.15
75786;DHT22;64402;44.708;37.644;2023-08-07T01:37:57;23.68;77.28
75786;DHT22;64402;44.708;37.644;2023-08-07T01:40:24;23.68;78.06
75786;DHT22;64402;44.708;37.644;2023-08-07T01:42:51;23.62;78.89
75786;DHT22;64402;44.708;37.644;2023-08-07T01:45:28;23.60;79.40
75786;DHT22;64402;44.708;37.644;2023-08-07T01:47:55;23.55;80.25
75786;DHT22;64402;44.708;37.644;2023-08-07T01:50:23;23.55;81.19
75786;DHT22;64402;44.708;37.644;2023-08-07T01:52:50;23.54;81.20
75786;DHT22;64402;44.708;37.644;2023-08-07T01:55:18;23.53;80.92
75786;DHT22;64402;44.708;37.644;2023-08-07T01:57:44;23.52;81.33
75786;DHT22;64402;44.708;37.644;2023-08-07T02:00:11;23.52;82.14
75786;DHT22;64402;44.708;37.644;2023-08-07T02:02:37;23.55;81.87
75786;DHT22;64402;44.708;37.644;2023-08-07T02:05:04;23.52;81.49
75786;DHT22;64402;44.708;37.644;2023-08-07T02:07:31;23.50;82.57
75786;DHT22;64402;44.708;37.644;2023-08-07T02:10:00;23.54;83.75
75786;DHT22;64402;44.708;37.644;2023-08-07T02:12:35;23.59;82.78
75786;DHT22;64402;44.708;37.644;2023-08-07T02:15:02;23.56;81.68
75786;DHT22;64402;44.708;37.644;2023-08-07T02:17:29;23.55;81.26
75786;DHT22;64402;44.708;37.644;2023-08-07T02:19:58;23.54;80.48
75786;DHT22;64402;44.708;37.644;2023-08-07T02:22:25;23.52;80.29
75786;DHT22;64402;44.708;37.644;2023-08-07T02:24:51;23.52;79.96
75786;DHT22;64402;44.708;37.644;2023-08-07T02:27:18;23.51;80.78
75786;DHT22;64402;44.708;37.644;2023-08-07T02:29:44;23.54;81.10
75786;DHT22;64402;44.708;37.644;2023-08-07T02:32:10;23.53;81.76
75786;DHT22;64402;44.708;37.644;2023-08-07T02:34:37;23.54;82.43
75786;DHT22;64402;44.708;37.644;2023-08-07T02:37:03;23.42;80.77
75786;DHT22;64402;44.708;37.644;2023-08-07T02:39:30;23.34;79.84
75786;DHT22;64402;44.708;37.644;2023-08-07T02:41:56;23.30;79.72
75786;DHT22;64402;44.708;37.644;2023-08-07T02:44:22;23.34;79.72
75786;DHT22;64402;44.708;37.644;2023-08-07T02:46:49;23.36;79.58
75786;DHT22;64402;44.708;37.644;2023-08-07T02:49:15;23.35;79.79
75786;DHT22;64402;44.708;37.644;2023-08-07T02:51:41;23.36;79.47
75786;DHT22;64402;44.708;37.644;2023-08-07T02:54:08;23.41;79.22
75786;DHT22;64402;44.708;37.644;2023-08-07T02:56:34;23.46;78.97
75786;DHT22;64402;44.708;37.644;2023-08-07T02:59:00;23.54;78.93
75786;DHT22;64402;44.708;37.644;2023-08-07T03:01:28;23.59;79.55
75786;DHT22;64402;44.708;37.644;2023-08-07T03:03:54;23.64;78.99
75786;DHT22;64402;44.708;37.644;2023-08-07T03:06:21;23.69;79.38
75786;DHT22;64402;44.708;37.644;2023-08-07T03:08:47;23.71;79.91
75786;DHT22;64402;44.708;37.644;2023-08-07T03:11:14;23.71;79.74
75786;DHT22;64402;44.708;37.644;2023-08-07T03:13:41;23.76;79.58
75786;DHT22;64402;44.708;37.644;2023-08-07T03:16:08;23.82;79.46
75786;DHT22;64402;44.708;37.644;2023-08-07T03:18:34;23.89;79.69
75786;DHT22;64402;44.708;37.644;2023-08-07T03:21:01;23.96;80.52
75786;DHT22;64402;44.708;37.644;2023-08-07T03:23:28;24.00;79.78
75786;DHT22;64402;44.708;37.644;2023-08-07T03:26:08;24.10;80.42
75786;DHT22;64402;44.708;37.644;2023-08-07T03:28:35;24.15;80.86
75786;DHT22;64402;44.708;37.644;2023-08-07T03:31:02;24.19;81.08
75786;DHT22;64402;44.708;37.644;2023-08-07T03:33:29;24.26;79.79
75786;DHT22;64402;44.708;37.644;2023-08-07T03:35:56;24.31;80.75
75786;DHT22;64402;44.708;37.644;2023-08-07T03:38:22;24.39;80.20
75786;DHT22;64402;44.708;37.644;2023-08-07T03:40:49;24.49;79.15
75786;DHT22;64402;44.708;37.644;2023-08-07T03:43:15;24.59;78.68
75786;DHT22;64402;44.708;37.644;2023-08-07T03:45:42;24.69;79.02
75786;DHT22;64402;44.708;37.644;2023-08-07T03:48:08;24.76;78.97
75786;DHT22;64402;44.708;37.644;2023-08-07T03:50:35;24.79;78.63
75786;DHT22;64402;44.708;37.644;2023-08-07T03:53:04;24.88;78.52
75786;DHT22;64402;44.708;37.644;2023-08-07T03:55:33;24.94;78.59
75786;DHT22;64402;44.708;37.644;2023-08-07T03:57:59;25.07;77.52
75786;DHT22;64402;44.708;37.644;2023-08-07T04:00:25;25.09;77.54
75786;DHT22;64402;44.708;37.644;2023-08-07T04:02:52;25.16;76.96
75786;DHT22;64402;44.708;37.644;2023-08-07T04:05:18;25.31;77.72
75786;DHT22;64402;44.708;37.644;2023-08-07T04:07:45;25.48;78.87
75786;DHT22;64402;44.708;37.644;2023-08-07T04:10:11;25.57;77.01
75786;DHT22;64402;44.708;37.644;2023-08-07T04:12:37;25.65;77.19
75786;DHT22;64402;44.708;37.644;2023-08-07T04:15:04;25.73;77.56
75786;DHT22;64402;44.708;37.644;2023-08-07T04:17:31;25.83;77.29
75786;DHT22;64402;44.708;37.644;2023-08-07T04:19:57;25.99;78.75
75786;DHT22;64402;44.708;37.644;2023-08-07T04:22:23;26.17;79.33
75786;DHT22;64402;44.708;37.644;2023-08-07T04:24:50;26.42;78.61
75786;DHT22;64402;44.708;37.644;2023-08-07T04:27:16;26.64;78.11
75786;DHT22;64402;44.708;37.644;2023-08-07T04:29:42;26.79;77.17
75786;DHT22;64402;44.708;37.644;2023-08-07T04:32:09;26.91;76.52
75786;DHT22;64402;44.708;37.644;2023-08-07T04:34:35;26.95;76.04
75786;DHT22;64402;44.708;37.644;2023-08-07T04:37:01;27.07;75.86
75786;DHT22;64402;44.708;37.644;2023-08-07T04:39:28;27.21;75.20
75786;DHT22;64402;44.708;37.644;2023-08-07T04:41:54;27.37;75.05
75786;DHT22;64402;44.708;37.644;2023-08-07T04:44:20;27.46;74.62
75786;DHT22;64402;44.708;37.644;2023-08-07T04:46:47;27.60;73.96
75786;DHT22;64402;44.708;37.644;2023-08-07T04:49:13;27.60;73.08
75786;DHT22;64402;44.708;37.644;2023-08-07T04:51:39;27.68;73.19
75786;DHT22;64402;44.708;37.644;2023-08-07T04:54:06;27.73;73.28
75786;DHT22;64402;44.708;37.644;2023-08-07T04:56:32;27.94;72.95
75786;DHT22;64402;44.708;37.644;2023-08-07T04:58:59;27.96;72.39
75786;DHT22;64402;44.708;37.644;2023-08-07T05:01:26;27.99;71.39
75786;DHT22;64402;44.708;37.644;2023-08-07T05:03:53;28.09;71.25
75786;DHT22;64402;44.708;37.644;2023-08-07T05:06:19;28.21;71.03
75786;DHT22;64402;44.708;37.644;2023-08-07T05:08:45;28.19;70.78
75786;DHT22;64402;44.708;37.644;2023-08-07T05:11:12;28.19;71.00
75786;DHT22;64402;44.708;37.644;2023-08-07T05:13:38;28.17;70.83
75786;DHT22;64402;44.708;37.644;2023-08-07T05:16:04;28.03;71.42
75786;DHT22;64402;44.708;37.644;2023-08-07T05:18:31;28.09;71.76
75786;DHT22;64402;44.708;37.644;2023-08-07T05:20:57;28.03;72.06
75786;DHT22;64402;44.708;37.644;2023-08-07T05:23:23;28.18;71.39
75786;DHT22;64402;44.708;37.644;2023-08-07T05:25:50;28.25;71.82
75786;DHT22;64402;44.708;37.644;2023-08-07T05:28:18;28.38;71.23
75786;DHT22;64402;44.708;37.644;2023-08-07T05:30:44;28.34;71.70
75786;DHT22;64402;44.708;37.644;2023-08-07T05:33:12;28.38;71.65
75786;DHT22;64402;44.708;37.644;2023-08-07T05:35:41;28.30;70.77
75786;DHT22;64402;44.708;37.644;2023-08-07T05:38:08;28.35;70.45
75786;DHT22;64402;44.708;37.644;2023-08-07T05:40:34;28.30;71.23
75786;DHT22;64402;44.708;37.644;2023-08-07T05:43:02;28.27;71.45
75786;DHT22;64402;44.708;37.644;2023-08-07T05:45:29;28.39;71.56
75786;DHT22;64402;44.708;37.644;2023-08-07T05:47:56;28.35;71.10
75786;DHT22;64402;44.708;37.644;2023-08-07T05:50:23;28.40;70.33
75786;DHT22;64402;44.708;37.644;2023-08-07T05:52:49;28.48;69.76
75786;DHT22;64402;44.708;37.644;2023-08-07T05:55:16;28.70;69.83
75786;DHT22;64402;44.708;37.644;2023-08-07T05:57:42;28.70;69.44
75786;DHT22;64402;44.708;37.644;2023-08-07T06:00:09;28.63;69.63
75786;DHT22;64402;44.708;37.644;2023-08-07T06:02:40;28.85;69.05
75786;DHT22;64402;44.708;37.644;2023-08-07T06:05:06;29.07;68.23
75786;DHT22;64402;44.708;37.644;2023-08-07T06:07:33;29.28;67.28
75786;DHT22;64402;44.708;37.644;2023-08-07T06:10:00;29.28;66.52
75786;DHT22;64402;44.708;37.644;2023-08-07T06:12:26;29.19;67.64
75786;DHT22;64402;44.708;37.644;2023-08-07T06:14:53;29.33;66.41
75786;DHT22;64402;44.708;37.644;2023-08-07T06:17:19;29.61;66.01
75786;DHT22;64402;44.708;37.644;2023-08-07T06:19:46;30.03;65.42
75786;DHT22;64402;44.708;37.644;2023-08-07T06:22:12;30.08;65.79
75786;DHT22;64402;44.708;37.644;2023-08-07T06:24:39;29.90;66.58
75786;DHT22;64402;44.708;37.644;2023-08-07T06:27:05;29.85;66.81
75786;DHT22;64402;44.708;37.644;2023-08-07T06:29:32;29.81;67.17
75786;DHT22;64402;44.708;37.644;2023-08-07T06:31:58;29.52;67.96
75786;DHT22;64402;44.708;37.644;2023-08-07T06:34:24;29.29;68.85
75786;DHT22;64402;44.708;37.644;2023-08-07T06:36:51;29.18;69.04
75786;DHT22;64402;44.708;37.644;2023-08-07T06:39:17;29.19;68.88
75786;DHT22;64402;44.708;37.644;2023-08-07T06:41:43;29.16;68.64
75786;DHT22;64402;44.708;37.644;2023-08-07T06:44:10;29.23;68.57
75786;DHT22;64402;44.708;37.644;2023-08-07T06:46:36;29.34;68.37
75786;DHT22;64402;44.708;37.644;2023-08-07T06:49:03;29.39;67.72
75786;DHT22;64402;44.708;37.644;2023-08-07T06:51:29;29.45;67.78
75786;DHT22;64402;44.708;37.644;2023-08-07T06:53:55;29.72;67.15
75786;DHT22;64402;44.708;37.644;2023-08-07T06:56:22;30.05;65.79
75786;DHT22;64402;44.708;37.644;2023-08-07T06:58:48;30.35;64.82
75786;DHT22;64402;44.708;37.644;2023-08-07T07:01:15;30.49;64.50
75786;DHT22;64402;44.708;37.644;2023-08-07T07:03:41;30.76;63.70
75786;DHT22;64402;44.708;37.644;2023-08-07T07:06:07;31.13;62.62
75786;DHT22;64402;44.708;37.644;2023-08-07T07:08:34;31.21;62.47
75786;DHT22;64402;44.708;37.644;2023-08-07T07:11:00;30.89;63.24
75786;DHT22;64402;44.708;37.644;2023-08-07T07:13:29;30.40;64.53
75786;DHT22;64402;44.708;37.644;2023-08-07T07:15:55;30.16;65.47
75786;DHT22;64402;44.708;37.644;2023-08-07T07:18:22;29.95;66.39
75786;DHT22;64402;44.708;37.644;2023-08-07T07:20:56;29.90;64.59
75786;DHT22;64402;44.708;37.644;2023-08-07T07:23:23;29.82;66.07
75786;DHT22;64402;44.708;37.644;2023-08-07T07:25:49;29.92;65.78
75786;DHT22;64402;44.708;37.644;2023-08-07T07:28:15;30.00;65.21
75786;DHT22;64402;44.708;37.644;2023-08-07T07:30:42;29.90;65.47
75786;DHT22;64402;44.708;37.644;2023-08-07T07:33:08;29.71;66.44
75786;DHT22;64402;44.708;37.644;2023-08-07T07:35:38;29.71;66.51
75786;DHT22;64402;44.708;37.644;2023-08-07T07:38:08;29.92;66.26
75786;DHT22;64402;44.708;37.644;2023-08-07T07:40:36;29.93;65.78
75786;DHT22;64402;44.708;37.644;2023-08-07T07:43:03;30.08;65.63
75786;DHT22;64402;44.708;37.644;2023-08-07T07:45:30;30.15;64.91
75786;DHT22;64402;44.708;37.644;2023-08-07T07:47:56;30.05;66.00
75786;DHT22;64402;44.708;37.644;2023-08-07T07:50:22;29.82;66.34
75786;DHT22;64402;44.708;37.644;2023-08-07T07:52:49;29.95;66.46
75786;DHT22;64402;44.708;37.644;2023-08-07T07:55:16;29.79;66.05
75786;DHT22;64402;44.708;37.644;2023-08-07T07:57:42;29.56;66.77
75786;DHT22;64402;44.708;37.644;2023-08-07T08:00:09;29.57;66.17
75786;DHT22;64402;44.708;37.644;2023-08-07T08:02:40;29.86;65.29
75786;DHT22;64402;44.708;37.644;2023-08-07T08:05:09;30.13;64.04
75786;DHT22;64402;44.708;37.644;2023-08-07T08:07:39;30.24;64.25
75786;DHT22;64402;44.708;37.644;2023-08-07T08:10:07;30.27;63.65
75786;DHT22;64402;44.708;37.644;2023-08-07T08:12:35;30.49;62.74
75786;DHT22;64402;44.708;37.644;2023-08-07T08:15:02;31.11;61.58
75786;DHT22;64402;44.708;37.644;2023-08-07T08:17:29;31.23;60.23
75786;DHT22;64402;44.708;37.644;2023-08-07T08:19:55;31.38;59.25
75786;DHT22;64402;44.708;37.644;2023-08-07T08:22:25;31.80;57.35
75786;DHT22;64402;44.708;37.644;2023-08-07T08:24:51;32.33;56.42
75786;DHT22;64402;44.708;37.644;2023-08-07T08:27:18;32.61;55.66
75786;DHT22;64402;44.708;37.644;2023-08-07T08:29:44;32.28;55.91
75786;DHT22;64402;44.708;37.644;2023-08-07T08:32:11;32.04;56.48
75786;DHT22;64402;44.708;37.644;2023-08-07T08:34:38;32.27;55.26
75786;DHT22;64402;44.708;37.644;2023-08-07T08:37:04;32.32;54.23
75786;DHT22;64402;44.708;37.644;2023-08-07T08:39:31;32.49;54.35
75786;DHT22;64402;44.708;37.644;2023-08-07T08:41:59;32.53;54.59
75786;DHT22;64402;44.708;37.644;2023-08-07T08:44:26;32.15;54.28
75786;DHT22;64402;44.708;37.644;2023-08-07T08:46:59;32.23;55.49
75786;DHT22;64402;44.708;37.644;2023-08-07T08:49:32;32.49;56.59
75786;DHT22;64402;44.708;37.644;2023-08-07T08:51:59;33.49;51.86
75786;DHT22;64402;44.708;37.644;2023-08-07T08:54:26;34.59;49.59
75786;DHT22;64402;44.708;37.644;2023-08-07T08:56:52;35.09;46.92
75786;DHT22;64402;44.708;37.644;2023-08-07T08:59:20;34.03;50.67
75786;DHT22;64402;44.708;37.644;2023-08-07T09:01:48;34.19;50.39
75786;DHT22;64402;44.708;37.644;2023-08-07T09:04:16;35.48;47.50
75786;DHT22;64402;44.708;37.644;2023-08-07T09:06:44;34.82;49.46
75786;DHT22;64402;44.708;37.644;2023-08-07T09:09:10;34.93;49.10
75786;DHT22;64402;44.708;37.644;2023-08-07T09:11:39;35.43;47.76
75786;DHT22;64402;44.708;37.644;2023-08-07T09:14:07;36.59;44.93
75786;DHT22;64402;44.708;37.644;2023-08-07T09:16:35;37.27;43.20
75786;DHT22;64402;44.708;37.644;2023-08-07T09:19:02;38.01;41.55
75786;DHT22;64402;44.708;37.644;2023-08-07T09:21:29;37.30;42.72
75786;DHT22;64402;44.708;37.644;2023-08-07T09:23:55;38.25;40.77
75786;DHT22;64402;44.708;37.644;2023-08-07T09:26:22;37.95;41.83
75786;DHT22;64402;44.708;37.644;2023-08-07T09:28:51;38.97;38.98
75786;DHT22;64402;44.708;37.644;2023-08-07T09:31:20;37.40;42.27
75786;DHT22;64402;44.708;37.644;2023-08-07T09:33:47;38.24;41.00
75786;DHT22;64402;44.708;37.644;2023-08-07T09:36:17;38.75;39.01
75786;DHT22;64402;44.708;37.644;2023-08-07T09:38:49;39.30;38.43
75786;DHT22;64402;44.708;37.644;2023-08-07T09:41:19;39.23;38.77
75786;DHT22;64402;44.708;37.644;2023-08-07T09:43:46;39.49;38.59
75786;DHT22;64402;44.708;37.644;2023-08-07T09:46:12;37.67;41.89
75786;DHT22;64402;44.708;37.644;2023-08-07T09:48:42;36.88;44.21
75786;DHT22;64402;44.708;37.644;2023-08-07T09:51:10;36.10;46.02
75786;DHT22;64402;44.708;37.644;2023-08-07T09:53:37;35.67;47.50
75786;DHT22;64402;44.708;37.644;2023-08-07T09:56:03;36.19;46.25
75786;DHT22;64402;44.708;37.644;2023-08-07T09:58:30;36.48;45.09
75786;DHT22;64402;44.708;37.644;2023-08-07T10:01:00;35.55;47.38
75786;DHT22;64402;44.708;37.644;2023-08-07T10:03:26;35.62;47.56
75786;DHT22;64402;44.708;37.644;2023-08-07T10:05:53;35.29;48.64
75786;DHT22;64402;44.708;37.644;2023-08-07T10:08:21;35.75;47.65
75786;DHT22;64402;44.708;37.644;2023-08-07T10:10:47;36.04;45.87
75786;DHT22;64402;44.708;37.644;2023-08-07T10:13:14;35.40;47.77
75786;DHT22;64402;44.708;37.644;2023-08-07T10:15:40;36.21;45.99
75786;DHT22;64402;44.708;37.644;2023-08-07T10:18:11;37.14;43.62
75786;DHT22;64402;44.708;37.644;2023-08-07T10:20:38;37.38;42.23
75786;DHT22;64402;44.708;37.644;2023-08-07T10:23:09;36.23;45.24
75786;DHT22;64402;44.708;37.644;2023-08-07T10:25:40;35.92;46.60
75786;DHT22;64402;44.708;37.644;2023-08-07T10:28:10;35.07;48.79
75786;DHT22;64402;44.708;37.644;2023-08-07T10:30:40;34.98;48.87
75786;DHT22;64402;44.708;37.644;2023-08-07T10:33:12;34.53;50.40
75786;DHT22;64402;44.708;37.644;2023-08-07T10:35:44;34.77;50.77
75786;DHT22;64402;44.708;37.644;2023-08-07T10:38:11;36.24;45.03
75786;DHT22;64402;44.708;37.644;2023-08-07T10:43:24;37.14;43.29
75786;DHT22;64402;44.708;37.644;2023-08-07T10:45:51;38.47;40.73
75786;DHT22;64402;44.708;37.644;2023-08-07T10:48:21;37.38;42.39
75786;DHT22;64402;44.708;37.644;2023-08-07T10:50:51;38.97;39.15
75786;DHT22;64402;44.708;37.644;2023-08-07T10:53:32;40.29;35.71
75786;DHT22;64402;44.708;37.644;2023-08-07T10:56:09;40.16;35.52
75786;DHT22;64402;44.708;37.644;2023-08-07T10:58:40;38.93;39.07
75786;DHT22;64402;44.708;37.644;2023-08-07T11:04:06;40.19;36.22
75786;DHT22;64402;44.708;37.644;2023-08-07T11:06:34;39.84;36.79
75786;DHT22;64402;44.708;37.644;2023-08-07T11:09:06;39.72;37.33
75786;DHT22;64402;44.708;37.644;2023-08-07T11:11:44;41.59;33.31
75786;DHT22;64402;44.708;37.644;2023-08-07T11:14:13;42.06;32.67
75786;DHT22;64402;44.708;37.644;2023-08-07T11:16:40;42.95;29.74
75786;DHT22;64402;44.708;37.644;2023-08-07T11:19:08;43.87;28.29
75786;DHT22;64402;44.708;37.644;2023-08-07T11:21:35;43.51;29.29
75786;DHT22;64402;44.708;37.644;2023-08-07T11:24:02;43.62;28.67
75786;DHT22;64402;44.708;37.644;2023-08-07T11:26:29;43.72;28.61
75786;DHT22;64402;44.708;37.644;2023-08-07T11:28:56;43.19;29.58
75786;DHT22;64402;44.708;37.644;2023-08-07T11:31:24;42.81;30.25
75786;DHT22;64402;44.708;37.644;2023-08-07T11:33:52;42.70;30.46
75786;DHT22;64402;44.708;37.644;2023-08-07T11:36:18;42.43;31.18
75786;DHT22;64402;44.708;37.644;2023-08-07T11:38:45;42.77;29.80
75786;DHT22;64402;44.708;37.644;2023-08-07T11:41:13;42.88;29.57
75786;DHT22;64402;44.708;37.644;2023-08-07T11:43:40;43.00;29.27
75786;DHT22;64402;44.708;37.644;2023-08-07T11:46:08;43.12;28.96
75786;DHT22;64402;44.708;37.644;2023-08-07T11:48:37;42.63;30.27
75786;DHT22;64402;44.708;37.644;2023-08-07T11:51:04;43.21;29.68
75786;DHT22;64402;44.708;37.644;2023-08-07T11:53:33;43.64;27.97
75786;DHT22;64402;44.708;37.644;2023-08-07T11:58:28;44.13;27.63
75786;DHT22;64402;44.708;37.644;2023-08-07T12:01:03;43.64;27.70
75786;DHT22;64402;44.708;37.644;2023-08-07T12:03:32;43.96;27.23
75786;DHT22;64402;44.708;37.644;2023-08-07T12:06:03;43.99;26.59
75786;DHT22;64402;44.708;37.644;2023-08-07T12:08:35;44.27;27.36
75786;DHT22;64402;44.708;37.644;2023-08-07T12:11:11;43.77;28.21
75786;DHT22;64402;44.708;37.644;2023-08-07T12:13:42;44.21;27.97
75786;DHT22;64402;44.708;37.644;2023-08-07T12:16:09;44.95;27.06
75786;DHT22;64402;44.708;37.644;2023-08-07T12:18:37;44.53;27.55
75786;DHT22;64402;44.708;37.644;2023-08-07T12:21:07;44.69;27.44
75786;DHT22;64402;44.708;37.644;2023-08-07T12:23:34;45.46;26.04
75786;DHT22;64402;44.708;37.644;2023-08-07T12:26:01;45.78;25.43
75786;DHT22;64402;44.708;37.644;2023-08-07T12:28:28;45.13;26.23
75786;DHT22;64402;44.708;37.644;2023-08-07T12:30:56;44.44;27.88
75786;DHT22;64402;44.708;37.644;2023-08-07T12:33:22;44.00;28.77
75786;DHT22;64402;44.708;37.644;2023-08-07T12:35:48;44.61;27.81
75786;DHT22;64402;44.708;37.644;2023-08-07T12:38:15;45.10;27.17
75786;DHT22;64402;44.708;37.644;2023-08-07T12:40:41;45.40;26.96
75786;DHT22;64402;44.708;37.644;2023-08-07T12:43:08;45.63;26.69
75786;DHT22;64402;44.708;37.644;2023-08-07T12:45:35;45.91;26.36
75786;DHT22;64402;44.708;37.644;2023-08-07T12:48:01;46.43;25.29
75786;DHT22;64402;44.708;37.644;2023-08-07T12:50:28;46.14;25.47
75786;DHT22;64402;44.708;37.644;2023-08-07T12:52:55;45.19;26.58
75786;DHT22;64402;44.708;37.644;2023-08-07T12:55:22;45.11;26.95
75786;DHT22;64402;44.708;37.644;2023-08-07T12:57:48;45.34;26.14
75786;DHT22;64402;44.708;37.644;2023-08-07T13:00:16;46.03;25.71
75786;DHT22;64402;44.708;37.644;2023-08-07T13:02:44;45.96;25.33
75786;DHT22;64402;44.708;37.644;2023-08-07T13:05:11;45.50;26.33
75786;DHT22;64402;44.708;37.644;2023-08-07T13:07:41;45.64;25.91
75786;DHT22;64402;44.708;37.644;2023-08-07T13:10:09;45.70;26.40
75786;DHT22;64402;44.708;37.644;2023-08-07T13:12:37;45.17;26.98
75786;DHT22;64402;44.708;37.644;2023-08-07T13:15:05;45.39;26.55
75786;DHT22;64402;44.708;37.644;2023-08-07T13:17:33;45.22;26.35
75786;DHT22;64402;44.708;37.644;2023-08-07T13:20:00;44.91;27.28
75786;DHT22;64402;44.708;37.644;2023-08-07T13:22:27;44.62;27.31
75786;DHT22;64402;44.708;37.644;2023-08-07T13:24:54;44.24;27.85
75786;DHT22;64402;44.708;37.644;2023-08-07T13:27:20;44.31;26.53
75786;DHT22;64402;44.708;37.644;2023-08-07T13:29:47;44.20;27.91
75786;DHT22;64402;44.708;37.644;2023-08-07T13:32:14;44.22;26.69
75786;DHT22;64402;44.708;37.644;2023-08-07T13:34:44;44.36;26.97
75786;DHT22;64402;44.708;37.644;2023-08-07T13:37:11;44.09;27.19
75786;DHT22;64402;44.708;37.644;2023-08-07T13:39:38;44.17;28.20
75786;DHT22;64402;44.708;37.644;2023-08-07T13:42:04;43.97;29.00
75786;DHT22;64402;44.708;37.644;2023-08-07T13:44:31;43.58;29.39
75786;DHT22;64402;44.708;37.644;2023-08-07T13:46:57;43.42;29.60
75786;DHT22;64402;44.708;37.644;2023-08-07T13:49:24;43.16;30.50
75786;DHT22;64402;44.708;37.644;2023-08-07T13:51:50;43.43;29.04
75786;DHT22;64402;44.708;37.644;2023-08-07T13:54:17;43.40;29.55
75786;DHT22;64402;44.708;37.644;2023-08-07T13:56:43;43.82;29.36
75786;DHT22;64402;44.708;37.644;2023-08-07T13:59:10;43.18;30.83
75786;DHT22;64402;44.708;37.644;2023-08-07T14:01:36;43.83;28.74
75786;DHT22;64402;44.708;37.644;2023-08-07T14:04:03;44.28;27.44
75786;DHT22;64402;44.708;37.644;2023-08-07T14:06:30;44.37;28.02
75786;DHT22;64402;44.708;37.644;2023-08-07T14:08:57;43.98;28.71
75786;DHT22;64402;44.708;37.644;2023-08-07T14:11:23;43.25;30.06
75786;DHT22;64402;44.708;37.644;2023-08-07T14:13:53;42.99;30.87
75786;DHT22;64402;44.708;37.644;2023-08-07T14:16:20;42.92;30.15
75786;DHT22;64402;44.708;37.644;2023-08-07T14:18:48;42.66;30.48
75786;DHT22;64402;44.708;37.644;2023-08-07T14:21:14;42.72;30.74
75786;DHT22;64402;44.708;37.644;2023-08-07T14:23:41;42.20;31.67
75786;DHT22;64402;44.708;37.644;2023-08-07T14:26:08;41.73;32.09
75786;DHT22;64402;44.708;37.644;2023-08-07T14:28:34;41.39;31.84
75786;DHT22;64402;44.708;37.644;2023-08-07T14:31:08;41.70;31.65
75786;DHT22;64402;44.708;37.644;2023-08-07T14:33:35;42.08;30.62
75786;DHT22;64402;44.708;37.644;2023-08-07T14:36:02;41.81;31.34
75786;DHT22;64402;44.708;37.644;2023-08-07T14:38:29;41.61;30.71
75786;DHT22;64402;44.708;37.644;2023-08-07T14:40:58;41.19;30.55
75786;DHT22;64402;44.708;37.644;2023-08-07T14:43:29;41.51;31.18
75786;DHT22;64402;44.708;37.644;2023-08-07T14:45:55;40.91;30.75
75786;DHT22;64402;44.708;37.644;2023-08-07T14:48:22;40.88;31.41
75786;DHT22;64402;44.708;37.644;2023-08-07T14:50:48;40.55;32.51
75786;DHT22;64402;44.708;37.644;2023-08-07T14:53:14;40.46;32.12
75786;DHT22;64402;44.708;37.644;2023-08-07T14:55:41;40.11;33.70
75786;DHT22;64402;44.708;37.644;2023-08-07T14:58:07;39.86;34.28
75786;DHT22;64402;44.708;37.644;2023-08-07T15:00:35;39.44;34.66
75786;DHT22;64402;44.708;37.644;2023-08-07T15:03:02;39.64;33.81
75786;DHT22;64402;44.708;37.644;2023-08-07T15:05:29;39.73;34.17
75786;DHT22;64402;44.708;37.644;2023-08-07T15:07:55;40.09;34.15
75786;DHT22;64402;44.708;37.644;2023-08-07T15:10:21;39.99;34.18
75786;DHT22;64402;44.708;37.644;2023-08-07T15:12:48;40.01;34.11
75786;DHT22;64402;44.708;37.644;2023-08-07T15:15:14;39.86;34.21
75786;DHT22;64402;44.708;37.644;2023-08-07T15:17:41;39.94;33.64
75786;DHT22;64402;44.708;37.644;2023-08-07T15:20:08;40.03;32.97
75786;DHT22;64402;44.708;37.644;2023-08-07T15:22:34;39.99;33.00
75786;DHT22;64402;44.708;37.644;2023-08-07T15:25:02;39.12;35.32
75786;DHT22;64402;44.708;37.644;2023-08-07T15:27:29;38.48;36.50
75786;DHT22;64402;44.708;37.644;2023-08-07T15:29:55;38.26;37.43
75786;DHT22;64402;44.708;37.644;2023-08-07T15:32:21;37.48;38.90
75786;DHT22;64402;44.708;37.644;2023-08-07T15:34:48;37.29;39.14